createdAt,value
2023-03-01T00:01:42.109Z,101401.88
2023-03-01T00:04:09.456Z,101394.81
2023-03-01T00:06:36.807Z,101397.75
2023-03-01T00:09:04.623Z,101400.50
2023-03-01T00:11:34.118Z,101388.53
2023-03-01T00:14:02.731Z,101390.22
2023-03-01T00:16:35.685Z,101393.78
2023-03-01T00:19:03.515Z,101392.72
2023-03-01T00:21:31.309Z,101389.47
2023-03-01T00:23:59.236Z,101380.84
2023-03-01T00:26:27.423Z,101376.00
2023-03-01T00:28:56.432Z,101369.88
2023-03-01T00:31:26.387Z,101371.78
2023-03-01T00:33:58.048Z,101367.47
2023-03-01T00:36:27.765Z,101364.50
2023-03-01T00:38:55.689Z,101362.63
2023-03-01T00:41:23.977Z,101362.09
2023-03-01T00:43:51.513Z,101364.81
2023-03-01T00:46:21.865Z,101356.47
2023-03-01T00:48:50.096Z,101359.97
2023-03-01T00:51:23.439Z,101356.16
2023-03-01T00:53:53.503Z,101357.00
2023-03-01T00:56:21.042Z,101366.97
2023-03-01T00:58:48.542Z,101351.06
2023-03-01T01:01:19.477Z,101353.50
2023-03-01T01:03:49.810Z,101353.78
2023-03-01T01:06:40.756Z,101347.00
2023-03-01T01:09:08.473Z,101340.28
2023-03-01T01:11:37.493Z,101343.25
2023-03-01T01:14:05.143Z,101345.69
2023-03-01T01:16:32.778Z,101331.91
2023-03-01T01:19:00.672Z,101322.72
2023-03-01T01:21:29.226Z,101319.50
2023-03-01T01:24:00.438Z,101319.78
2023-03-01T01:26:30.544Z,101302.22
2023-03-01T01:28:58.716Z,101309.00
2023-03-01T01:31:29.113Z,101303.84
2023-03-01T01:33:57.312Z,101302.22
2023-03-01T01:36:25.024Z,101294.94
2023-03-01T01:38:52.377Z,101290.63
2023-03-01T01:41:20.223Z,101287.13
2023-03-01T01:44:11.097Z,101279.56
2023-03-01T01:46:41.886Z,101282.53
2023-03-01T01:49:33.023Z,101273.91
2023-03-01T01:52:18.387Z,101271.47
2023-03-01T01:55:08.613Z,101269.31
2023-03-01T01:57:46.951Z,101267.44
2023-03-01T02:00:23.794Z,101271.22
2023-03-01T02:02:56.212Z,101264.72
2023-03-01T02:05:33.780Z,101267.72
2023-03-01T02:08:01.734Z,101263.38
2023-03-01T02:10:30.328Z,101257.97
2023-03-01T02:12:58.746Z,101258.53
2023-03-01T02:15:27.565Z,101253.66
2023-03-01T02:17:55.928Z,101248.00
2023-03-01T02:20:37.056Z,101245.06
2023-03-01T02:23:04.614Z,101236.94
2023-03-01T02:25:52.752Z,101237.47
2023-03-01T02:28:30.911Z,101230.19
2023-03-01T02:31:19.986Z,101236.69
2023-03-01T02:33:49.436Z,101235.06
2023-03-01T02:36:21.635Z,101222.66
2023-03-01T02:38:52.782Z,101222.13
2023-03-01T02:41:22.175Z,101221.88
2023-03-01T02:43:49.733Z,101218.31
2023-03-01T02:46:18.970Z,101218.59
2023-03-01T02:48:47.903Z,101205.69
2023-03-01T02:51:33.930Z,101193.00
2023-03-01T02:54:21.740Z,101201.09
2023-03-01T02:56:49.904Z,101191.66
2023-03-01T02:59:23.270Z,101187.06
2023-03-01T03:01:51.364Z,101184.38
2023-03-01T03:04:19.983Z,101182.47
2023-03-01T03:06:51.351Z,101182.22
2023-03-01T03:09:19.769Z,101181.41
2023-03-01T03:11:48.018Z,101179.78
2023-03-01T03:14:17.742Z,101179.75
2023-03-01T03:16:50.626Z,101175.47
2023-03-01T03:19:20.999Z,101183.03
2023-03-01T03:21:48.341Z,101183.56
2023-03-01T03:24:15.727Z,101184.13
2023-03-01T03:26:43.025Z,101178.16
2023-03-01T03:29:10.356Z,101174.13
2023-03-01T03:31:37.761Z,101178.44
2023-03-01T03:34:05.120Z,101179.53
2023-03-01T03:36:32.573Z,101176.28
2023-03-01T03:39:02.610Z,101176.28
2023-03-01T03:41:29.895Z,101167.66
2023-03-01T03:43:57.222Z,101172.50
2023-03-01T03:46:24.498Z,101173.84
2023-03-01T03:48:52.059Z,101170.88
2023-03-01T03:51:19.861Z,101179.25
2023-03-01T03:53:47.157Z,101177.09
2023-03-01T03:56:14.782Z,101171.97
2023-03-01T03:58:42.172Z,101171.44
2023-03-01T04:01:09.512Z,101178.44
2023-03-01T04:03:36.805Z,101171.97
2023-03-01T04:06:05.319Z,101165.78
2023-03-01T04:08:33.123Z,101171.16
2023-03-01T04:11:25.249Z,101170.06
2023-03-01T04:13:55.692Z,101160.38
2023-03-01T04:16:24.419Z,101160.09
2023-03-01T04:18:53.256Z,101165.25
2023-03-01T04:21:21.277Z,101146.91
2023-03-01T04:23:49.338Z,101161.47
2023-03-01T04:26:16.681Z,101157.69
2023-03-01T04:28:46.368Z,101157.97
2023-03-01T04:31:18.409Z,101149.88
2023-03-01T04:33:49.887Z,101156.06
2023-03-01T04:36:18.942Z,101150.94
2023-03-01T04:38:49.681Z,101151.50
2023-03-01T04:41:22.029Z,101155.25
2023-03-01T04:43:49.824Z,101149.06
2023-03-01T04:46:20.607Z,101153.63
2023-03-01T04:48:50.859Z,101156.31
2023-03-01T04:51:19.304Z,101156.31
2023-03-01T04:53:46.664Z,101148.22
2023-03-01T04:56:14.936Z,101161.97
2023-03-01T04:58:42.472Z,101155.25
2023-03-01T05:01:17.854Z,101157.94
2023-03-01T05:03:47.174Z,101159.56
2023-03-01T05:06:16.012Z,101152.56
2023-03-01T05:08:44.180Z,101158.75
2023-03-01T05:11:12.010Z,101153.63
2023-03-01T05:13:40.464Z,101147.16
2023-03-01T05:16:12.274Z,101142.81
2023-03-01T05:18:41.132Z,101142.03
2023-03-01T05:21:16.997Z,101141.47
2023-03-01T05:23:45.157Z,101142.81
2023-03-01T05:26:27.986Z,101140.13
2023-03-01T05:28:59.823Z,101141.44
2023-03-01T05:31:28.177Z,101143.88
2023-03-01T05:33:55.753Z,101139.53
2023-03-01T05:36:23.102Z,101146.84
2023-03-01T05:38:50.542Z,101153.31
2023-03-01T05:41:20.422Z,101149.81
2023-03-01T05:43:47.773Z,101152.78
2023-03-01T05:46:16.235Z,101143.63
2023-03-01T05:48:43.775Z,101141.44
2023-03-01T05:51:11.190Z,101138.22
2023-03-01T05:53:38.541Z,101139.53
2023-03-01T05:56:07.080Z,101136.56
2023-03-01T05:58:34.587Z,101136.06
2023-03-01T06:01:01.825Z,101139.81
2023-03-01T06:03:29.096Z,101147.66
2023-03-01T06:06:15.813Z,101150.34
2023-03-01T06:08:43.210Z,101145.22
2023-03-01T06:11:10.852Z,101147.34
2023-03-01T06:13:38.170Z,101139.22
2023-03-01T06:16:09.146Z,101144.09
2023-03-01T06:18:37.649Z,101154.59
2023-03-01T06:21:06.234Z,101164.03
2023-03-01T06:23:34.114Z,101154.81
2023-03-01T06:26:05.637Z,101148.41
2023-03-01T06:28:32.994Z,101137.59
2023-03-01T06:31:00.301Z,101145.16
2023-03-01T06:33:27.736Z,101134.84
2023-03-01T06:35:57.829Z,101143.44
2023-03-01T06:38:26.947Z,101139.44
2023-03-01T06:40:55.887Z,101130.78
2023-03-01T06:43:24.457Z,101134.63
2023-03-01T06:45:51.941Z,101123.03
2023-03-01T06:48:19.348Z,101124.09
2023-03-01T06:50:46.638Z,101126.16
2023-03-01T06:53:13.985Z,101133.16
2023-03-01T06:55:41.235Z,101139.66
2023-03-01T06:58:10.351Z,101134.84
2023-03-01T07:00:37.737Z,101144.25
2023-03-01T07:03:05.237Z,101135.38
2023-03-01T07:05:34.230Z,101144.69
2023-03-01T07:08:03.880Z,101136.88
2023-03-01T07:10:31.209Z,101136.81
2023-03-01T07:12:59.268Z,101127.81
2023-03-01T07:15:27.739Z,101122.38
2023-03-01T07:17:55.419Z,101127.84
2023-03-01T07:20:25.606Z,101128.63
2023-03-01T07:22:54.512Z,101130.31
2023-03-01T07:25:22.134Z,101121.94
2023-03-01T07:27:56.087Z,101125.66
2023-03-01T07:30:27.084Z,101128.22
2023-03-01T07:32:58.108Z,101132.00
2023-03-01T07:35:29.040Z,101128.16
2023-03-01T07:37:57.434Z,101118.09
2023-03-01T07:40:24.694Z,101125.13
2023-03-01T07:42:56.779Z,101122.66
2023-03-01T07:45:24.107Z,101125.06
2023-03-01T07:47:52.698Z,101103.44
2023-03-01T07:50:20.435Z,101087.72
2023-03-01T07:52:49.381Z,101096.72
2023-03-01T07:55:17.655Z,101094.47
2023-03-01T07:57:45.009Z,101089.06
2023-03-01T08:00:14.229Z,101078.28
2023-03-01T08:02:42.929Z,101084.09
2023-03-01T08:05:11.172Z,101080.19
2023-03-01T08:07:38.803Z,101073.72
2023-03-01T08:10:06.766Z,101066.44
2023-03-01T08:12:34.171Z,101069.38
2023-03-01T08:15:01.451Z,101062.81
2023-03-01T08:17:28.909Z,101055.75
2023-03-01T08:19:56.226Z,101048.66
2023-03-01T08:22:23.611Z,101052.44
2023-03-01T08:24:50.932Z,101044.19
2023-03-01T08:27:18.473Z,101044.41
2023-03-01T08:29:45.842Z,101046.13
2023-03-01T08:32:13.289Z,101050.44
2023-03-01T08:34:42.472Z,101044.47
2023-03-01T08:37:10.894Z,101049.59
2023-03-01T08:39:38.215Z,101048.53
2023-03-01T08:42:05.749Z,101051.13
2023-03-01T08:44:33.218Z,101047.97
2023-03-01T08:47:01.034Z,101051.06
2023-03-01T08:49:28.316Z,101044.13
2023-03-01T08:51:55.700Z,101027.16
2023-03-01T08:54:26.102Z,101039.59
2023-03-01T08:56:53.432Z,101028.78
2023-03-01T08:59:20.826Z,101020.94
2023-03-01T09:01:48.525Z,101018.28
2023-03-01T09:04:17.213Z,101011.91
2023-03-01T09:06:47.308Z,101013.84
2023-03-01T09:09:17.481Z,101017.53
2023-03-01T09:11:47.398Z,101009.97
2023-03-01T09:14:15.537Z,101012.13
2023-03-01T09:16:43.220Z,101008.88
2023-03-01T09:19:10.594Z,101000.81
2023-03-01T09:21:40.967Z,101003.75
2023-03-01T09:24:15.922Z,100996.97
2023-03-01T09:26:43.792Z,101001.06
2023-03-01T09:29:11.401Z,101001.91
2023-03-01T09:31:39.133Z,101003.56
2023-03-01T09:34:06.776Z,101001.13
2023-03-01T09:36:34.905Z,101000.53
2023-03-01T09:39:03.426Z,100989.75
2023-03-01T09:41:44.803Z,100986.16
2023-03-01T09:44:32.132Z,100984.84
2023-03-01T09:47:00.531Z,100968.81
2023-03-01T09:49:40.576Z,100975.66
2023-03-01T09:52:17.116Z,100961.78
2023-03-01T09:54:44.457Z,100963.69
2023-03-01T09:57:17.585Z,100953.75
2023-03-01T09:59:53.895Z,100954.06
2023-03-01T10:02:50.351Z,100948.31
2023-03-01T10:05:28.518Z,100946.19
2023-03-01T10:08:13.853Z,100960.53
2023-03-01T10:10:45.267Z,100956.47
2023-03-01T10:13:25.550Z,100961.22
2023-03-01T10:16:02.895Z,100965.09
2023-03-01T10:18:33.779Z,100960.16
2023-03-01T10:21:03.831Z,100964.09
2023-03-01T10:23:39.168Z,100958.97
2023-03-01T10:26:25.177Z,100955.91
2023-03-01T10:28:58.497Z,100945.03
2023-03-01T10:31:38.273Z,100952.31
2023-03-01T10:34:20.705Z,100948.22
2023-03-01T10:36:51.990Z,100941.97
2023-03-01T10:39:21.975Z,100940.47
2023-03-01T10:42:07.136Z,100927.53
2023-03-01T10:44:40.373Z,100925.16
2023-03-01T10:47:21.416Z,100929.38
2023-03-01T10:50:05.075Z,100929.75
2023-03-01T10:52:39.150Z,100929.63
2023-03-01T10:55:32.318Z,100924.31
2023-03-01T10:58:20.229Z,100926.88
2023-03-01T11:00:59.801Z,100930.03
2023-03-01T11:03:39.509Z,100928.66
2023-03-01T11:06:22.623Z,100919.94
2023-03-01T11:08:51.609Z,100920.84
2023-03-01T11:11:34.460Z,100932.75
2023-03-01T11:14:26.534Z,100929.88
2023-03-01T11:17:12.817Z,100928.91
2023-03-01T11:19:40.274Z,100929.47
2023-03-01T11:22:18.965Z,100931.06
2023-03-01T11:25:00.086Z,100938.22
2023-03-01T11:27:40.210Z,100946.09
2023-03-01T11:30:19.247Z,100946.47
2023-03-01T11:33:09.173Z,100944.38
2023-03-01T11:35:44.105Z,100955.41
2023-03-01T11:38:26.463Z,100953.72
2023-03-01T11:41:06.500Z,100958.44
2023-03-01T11:43:56.139Z,100955.22
2023-03-01T11:46:32.775Z,100960.25
2023-03-01T11:49:37.835Z,100970.69
2023-03-01T11:52:05.222Z,100966.81
2023-03-01T11:55:10.974Z,100974.63
2023-03-01T11:57:57.077Z,100965.78
2023-03-01T12:00:42.897Z,100963.94
2023-03-01T12:03:47.900Z,100958.25
2023-03-01T12:06:44.613Z,100952.81
2023-03-01T12:09:39.429Z,100944.50
2023-03-01T12:12:21.994Z,100954.63
2023-03-01T12:15:07.663Z,100950.72
2023-03-01T12:18:09.215Z,100958.47
2023-03-01T12:20:48.757Z,100944.25
2023-03-01T12:23:39.427Z,100950.41
2023-03-01T12:26:15.929Z,100954.19
2023-03-01T12:28:55.411Z,100953.19
2023-03-01T12:31:44.558Z,100952.88
2023-03-01T12:34:30.028Z,100950.81
2023-03-01T12:37:34.740Z,100958.06
2023-03-01T12:40:27.099Z,100953.88
2023-03-01T12:42:58.588Z,100950.03
2023-03-01T12:45:45.533Z,100943.22
2023-03-01T12:48:26.476Z,100956.41
2023-03-01T12:50:58.693Z,100959.13
2023-03-01T12:53:34.004Z,100935.81
2023-03-01T12:56:06.278Z,100935.06
2023-03-01T12:59:00.361Z,100923.56
2023-03-01T13:01:37.671Z,100913.06
2023-03-01T13:04:27.887Z,100909.09
2023-03-01T13:07:13.979Z,100913.44
2023-03-01T13:10:03.724Z,100907.38
2023-03-01T13:12:49.763Z,100907.44
2023-03-01T13:15:23.042Z,100905.78
2023-03-01T13:17:53.814Z,100914.25
2023-03-01T13:20:45.914Z,100908.81
2023-03-01T13:23:28.392Z,100912.81
2023-03-01T13:26:17.792Z,100906.03
2023-03-01T13:28:45.064Z,100899.47
2023-03-01T13:31:18.253Z,100886.34
2023-03-01T13:33:48.930Z,100894.00
2023-03-01T13:36:28.790Z,100887.75
2023-03-01T13:39:00.278Z,100892.09
2023-03-01T13:41:40.093Z,100888.22
2023-03-01T13:44:22.726Z,100891.06
2023-03-01T13:46:52.444Z,100888.50
2023-03-01T13:49:23.883Z,100894.72
2023-03-01T13:51:52.288Z,100882.69
2023-03-01T13:54:30.747Z,100890.03
2023-03-01T13:57:00.141Z,100898.41
2023-03-01T13:59:27.935Z,100884.31
2023-03-01T14:02:02.098Z,100894.75
2023-03-01T14:04:36.788Z,100906.25
2023-03-01T14:07:30.515Z,100898.66
2023-03-01T14:10:04.149Z,100905.91
2023-03-01T14:12:46.068Z,100908.63
2023-03-01T14:15:22.950Z,100918.16
2023-03-01T14:18:13.504Z,100910.81
2023-03-01T14:20:43.931Z,100918.44
2023-03-01T14:23:19.698Z,100907.69
2023-03-01T14:25:52.799Z,100914.03
2023-03-01T14:28:26.630Z,100914.22
2023-03-01T14:30:59.381Z,100910.59
2023-03-01T14:33:43.153Z,100901.88
2023-03-01T14:36:13.490Z,100914.09
2023-03-01T14:38:46.321Z,100919.31
2023-03-01T14:41:21.070Z,100912.28
2023-03-01T14:44:02.094Z,100903.47
2023-03-01T14:46:37.658Z,100914.63
2023-03-01T14:49:18.192Z,100903.09
2023-03-01T14:51:57.921Z,100903.66
2023-03-01T14:54:36.785Z,100900.75
2023-03-01T14:57:04.528Z,100902.47
2023-03-01T14:59:38.088Z,100902.75
2023-03-01T15:02:05.600Z,100896.72
2023-03-01T15:04:34.736Z,100901.66
2023-03-01T15:07:05.983Z,100890.09
2023-03-01T15:09:36.889Z,100895.94
2023-03-01T15:12:29.472Z,100893.63
2023-03-01T15:15:03.910Z,100888.91
2023-03-01T15:17:39.474Z,100894.44
2023-03-01T15:20:17.719Z,100904.28
2023-03-01T15:22:49.641Z,100899.53
2023-03-01T15:25:19.388Z,100890.50
2023-03-01T15:27:51.428Z,100898.94
2023-03-01T15:30:38.673Z,100893.19
2023-03-01T15:33:29.853Z,100900.03
2023-03-01T15:35:59.250Z,100905.22
2023-03-01T15:38:51.737Z,100900.78
2023-03-01T15:41:38.704Z,100905.34
2023-03-01T15:44:30.004Z,100912.59
2023-03-01T15:47:22.677Z,100904.72
2023-03-01T15:49:55.448Z,100913.44
2023-03-01T15:52:36.112Z,100903.75
2023-03-01T15:55:16.626Z,100906.84
2023-03-01T15:57:44.034Z,100896.50
2023-03-01T16:00:14.285Z,100892.75
2023-03-01T16:02:43.492Z,100889.97
2023-03-01T16:05:18.420Z,100898.38
2023-03-01T16:07:45.717Z,100897.97
2023-03-01T16:10:13.517Z,100906.41
2023-03-01T16:12:41.108Z,100905.31
2023-03-01T16:15:26.859Z,100905.97
2023-03-01T16:17:56.121Z,100908.47
2023-03-01T16:20:28.591Z,100909.34
2023-03-01T16:23:05.771Z,100919.56
2023-03-01T16:25:35.828Z,100932.22
2023-03-01T16:28:09.917Z,100922.31
2023-03-01T16:30:41.066Z,100930.19
2023-03-01T16:33:25.252Z,100938.13
2023-03-01T16:35:56.896Z,100939.34
2023-03-01T16:38:24.355Z,100943.38
2023-03-01T16:40:55.147Z,100939.91
2023-03-01T16:43:22.534Z,100935.84
2023-03-01T16:45:50.129Z,100951.22
2023-03-01T16:48:17.437Z,100949.00
2023-03-01T16:50:45.082Z,100957.88
2023-03-01T16:53:13.068Z,100958.31
2023-03-01T16:55:46.246Z,100959.44
2023-03-01T16:58:13.669Z,100961.38
2023-03-01T17:00:41.193Z,100962.03
2023-03-01T17:03:08.702Z,100962.34
2023-03-01T17:05:37.188Z,100969.84
2023-03-01T17:08:04.527Z,100972.91
2023-03-01T17:10:33.939Z,100975.38
2023-03-01T17:13:01.262Z,100981.28
2023-03-01T17:15:28.730Z,100986.50
2023-03-01T17:17:56.108Z,100989.47
2023-03-01T17:20:23.512Z,100996.22
2023-03-01T17:22:53.591Z,100995.41
2023-03-01T17:25:21.022Z,100993.66
2023-03-01T17:27:48.370Z,101005.78
2023-03-01T17:30:16.176Z,100999.13
2023-03-01T17:32:43.653Z,101005.34
2023-03-01T17:35:13.867Z,101005.56
2023-03-01T17:37:46.465Z,100997.31
2023-03-01T17:40:15.839Z,101011.09
2023-03-01T17:42:43.137Z,101009.59
2023-03-01T17:45:10.827Z,101017.41
2023-03-01T17:47:38.422Z,101023.88
2023-03-01T17:50:08.198Z,101004.94
2023-03-01T17:52:36.957Z,101015.75
2023-03-01T17:55:05.372Z,101024.38
2023-03-01T17:57:32.957Z,101029.03
2023-03-01T18:00:00.338Z,101023.88
2023-03-01T18:02:27.756Z,101028.53
2023-03-01T18:05:01.666Z,101029.56
2023-03-01T18:07:29.106Z,101032.50
2023-03-01T18:09:56.588Z,101031.28
2023-03-01T18:12:24.010Z,101023.34
2023-03-01T18:14:54.472Z,101025.03
2023-03-01T18:17:24.035Z,101021.66
2023-03-01T18:19:51.841Z,101022.09
2023-03-01T18:22:19.141Z,101027.19
2023-03-01T18:24:46.820Z,101033.19
2023-03-01T18:27:14.114Z,101036.97
2023-03-01T18:29:41.648Z,101038.03
2023-03-01T18:32:09.011Z,101035.94
2023-03-01T18:34:36.494Z,101040.59
2023-03-01T18:37:09.512Z,101049.19
2023-03-01T18:39:38.110Z,101047.84
2023-03-01T18:42:05.686Z,101045.19
2023-03-01T18:44:33.607Z,101048.19
2023-03-01T18:47:01.174Z,101049.19
2023-03-01T18:49:28.476Z,101040.03
2023-03-01T18:51:56.442Z,101046.50
2023-03-01T18:54:23.948Z,101055.91
2023-03-01T18:56:51.427Z,101053.16
2023-03-01T18:59:19.040Z,101059.91
2023-03-01T19:01:46.650Z,101054.06
2023-03-01T19:04:15.487Z,101051.97
2023-03-01T19:06:43.005Z,101060.31
2023-03-01T19:09:11.442Z,101059.09
2023-03-01T19:11:40.129Z,101060.78
2023-03-01T19:14:08.537Z,101070.59
2023-03-01T19:16:36.237Z,101077.69
2023-03-01T19:19:05.360Z,101078.50
2023-03-01T19:21:33.734Z,101092.03
2023-03-01T19:24:02.541Z,101093.28
2023-03-01T19:26:30.927Z,101078.75
2023-03-01T19:28:58.897Z,101095.28
2023-03-01T19:31:28.932Z,101083.00
2023-03-01T19:34:08.981Z,101087.09
2023-03-01T19:36:42.729Z,101073.72
2023-03-01T19:39:13.448Z,101091.81
2023-03-01T19:41:41.995Z,101092.44
2023-03-01T19:44:09.603Z,101084.72
2023-03-01T19:46:37.395Z,101101.94
2023-03-01T19:49:05.495Z,101094.16
2023-03-01T19:51:35.585Z,101095.22
2023-03-01T19:54:05.445Z,101103.94
2023-03-01T19:56:34.014Z,101100.03
2023-03-01T19:59:04.300Z,101103.03
2023-03-01T20:01:34.899Z,101107.69
2023-03-01T20:04:03.734Z,101112.25
2023-03-01T20:06:31.808Z,101102.53
2023-03-01T20:09:09.001Z,101101.09
2023-03-01T20:11:43.307Z,101101.19
2023-03-01T20:14:12.307Z,101111.09
2023-03-01T20:16:40.414Z,101116.50
2023-03-01T20:19:07.954Z,101107.84
2023-03-01T20:21:35.669Z,101113.00
2023-03-01T20:24:03.196Z,101115.31
2023-03-01T20:26:32.662Z,101122.91
2023-03-01T20:29:00.347Z,101114.97
2023-03-01T20:31:30.513Z,101127.28
2023-03-01T20:33:59.818Z,101133.50
2023-03-01T20:36:28.113Z,101129.38
2023-03-01T20:38:56.116Z,101129.88
2023-03-01T20:41:26.508Z,101145.03
2023-03-01T20:43:57.365Z,101137.75
2023-03-01T20:46:27.994Z,101135.84
2023-03-01T20:48:55.704Z,101141.63
2023-03-01T20:51:23.277Z,101138.34
2023-03-01T20:53:51.468Z,101136.97
2023-03-01T20:56:21.166Z,101135.53
2023-03-01T20:59:09.725Z,101135.53
2023-03-01T21:01:39.397Z,101145.31
2023-03-01T21:04:07.874Z,101140.47
2023-03-01T21:06:36.422Z,101134.25
2023-03-01T21:09:04.115Z,101136.34
2023-03-01T21:11:31.527Z,101137.09
2023-03-01T21:13:59.045Z,101131.16
2023-03-01T21:16:26.922Z,101131.16
2023-03-01T21:18:54.510Z,101128.22
2023-03-01T21:21:23.413Z,101126.19
2023-03-01T21:23:50.831Z,101133.75
2023-03-01T21:26:20.848Z,101135.59
2023-03-01T21:28:50.322Z,101136.66
2023-03-01T21:31:20.591Z,101146.13
2023-03-01T21:33:50.716Z,101145.34
2023-03-01T21:36:18.791Z,101148.38
2023-03-01T21:38:48.212Z,101141.53
2023-03-01T21:41:19.360Z,101137.41
2023-03-01T21:43:48.944Z,101136.16
2023-03-01T21:46:19.136Z,101131.00
2023-03-01T21:48:47.854Z,101131.19
2023-03-01T21:51:36.248Z,101140.91
2023-03-01T21:54:04.128Z,101148.47
2023-03-01T21:56:34.536Z,101143.59
2023-03-01T21:59:02.561Z,101144.63
2023-03-01T22:01:30.723Z,101145.34
2023-03-01T22:04:00.246Z,101141.47
2023-03-01T22:06:35.315Z,101143.06
2023-03-01T22:09:25.410Z,101139.06
2023-03-01T22:11:58.474Z,101144.97
2023-03-01T22:14:26.475Z,101132.78
2023-03-01T22:16:54.054Z,101140.19
2023-03-01T22:19:24.898Z,101136.03
2023-03-01T22:21:53.068Z,101134.75
2023-03-01T22:24:24.290Z,101127.22
2023-03-01T22:26:52.372Z,101126.63
2023-03-01T22:29:23.041Z,101128.25
2023-03-01T22:31:51.014Z,101113.69
2023-03-01T22:34:18.741Z,101121.81
2023-03-01T22:36:46.369Z,101124.91
2023-03-01T22:39:15.472Z,101117.19
2023-03-01T22:41:48.148Z,101118.44
2023-03-01T22:44:18.761Z,101119.41
2023-03-01T22:46:46.645Z,101120.28
2023-03-01T22:49:14.777Z,101121.69
2023-03-01T22:51:43.561Z,101127.84
2023-03-01T22:54:11.362Z,101120.44
2023-03-01T22:56:39.710Z,101119.91
2023-03-01T22:59:09.651Z,101113.19
2023-03-01T23:01:38.790Z,101118.31
2023-03-01T23:04:06.643Z,101113.34
2023-03-01T23:06:34.807Z,101108.88
2023-03-01T23:09:04.435Z,101108.50
2023-03-01T23:11:31.744Z,101113.13
2023-03-01T23:13:59.526Z,101105.28
2023-03-01T23:16:27.827Z,101106.03
2023-03-01T23:18:58.277Z,101107.69
2023-03-01T23:21:26.832Z,101108.88
2023-03-01T23:23:56.042Z,101100.72
2023-03-01T23:26:26.308Z,101107.78
2023-03-01T23:28:55.333Z,101105.28
2023-03-01T23:31:23.330Z,101091.59
2023-03-01T23:33:53.716Z,101100.88
2023-03-01T23:36:23.728Z,101106.16
2023-03-01T23:38:53.826Z,101101.91
2023-03-01T23:41:23.186Z,101089.69
2023-03-01T23:43:52.836Z,101096.19
2023-03-01T23:46:23.197Z,101085.66
2023-03-01T23:48:50.944Z,101085.56
2023-03-01T23:51:18.796Z,101089.88
2023-03-01T23:53:54.640Z,101093.41
2023-03-01T23:56:26.316Z,101094.19
2023-03-01T23:58:59.318Z,101099.78
